Time;durP1;ratioP1;P1;durP2;ratioP2;P2;SDS_P1;SDS_P2;PMS_P1;PMS_P2;Temp;Humidity;BMP_temperature;BMP_pressure;BME280_temperature;BME280_humidity;BME280_pressure;Samples;Min_cycle;Max_cycle;Signal;HPM_P1;HPM_P2
2024/03/02 00:01:09;;;;;;;2.88;1.50;;;;;;;;;;5053571;28;20129;-69
2024/03/02 00:03:37;;;;;;;6.43;1.00;;;;;;;;;;5053412;28;20441;-68
2024/03/02 00:06:02;;;;;;;2.83;0.93;;;;;;;;;;5053627;28;20064;-69
2024/03/02 00:08:28;;;;;;;15.23;1.17;;;;;;;;;;5053970;28;20073;-69
2024/03/02 00:11:02;;;;;;;1.67;0.75;;;;;;;;;;5036277;28;20116;-69
2024/03/02 00:13:29;;;;;;;4.00;0.98;;;;;;;;;;5053256;28;20068;-68
2024/03/02 00:15:56;;;;;;;5.13;0.85;;;;;;;;;;5035692;28;20396;-68
2024/03/02 00:18:33;;;;;;;2.90;1.00;;;;;;;;;;5035847;28;20036;-69
2024/03/02 00:20:59;;;;;;;3.63;1.27;;;;;;;;;;5035616;28;20108;-69
2024/03/02 00:23:30;;;;;;;8.18;1.33;;;;;;;;;;5035552;28;20032;-68
2024/03/02 00:25:56;;;;;;;10.77;1.25;;;;;;;;;;5051751;28;20029;-69
2024/03/02 00:28:33;;;;;;;4.53;1.40;;;;;;;;;;5035221;28;20129;-69
2024/03/02 00:31:04;;;;;;;2.05;1.17;;;;;;;;;;5036166;28;20033;-68
2024/03/02 00:33:33;;;;;;;6.53;1.02;;;;;;;;;;5052527;28;20419;-69
2024/03/02 00:35:59;;;;;;;2.40;1.00;;;;;;;;;;5034694;28;20049;-70
2024/03/02 00:38:25;;;;;;;6.90;1.02;;;;;;;;;;5053482;28;20049;-69
2024/03/02 00:40:51;;;;;;;1.67;0.68;;;;;;;;;;5035532;28;20064;-68
2024/03/02 00:43:39;;;;;;;3.92;0.63;;;;;;;;;;5053151;28;20029;-69
2024/03/02 00:46:04;;;;;;;2.88;0.90;;;;;;;;;;5034991;28;20045;-69
2024/03/02 00:48:31;;;;;;;2.80;0.98;;;;;;;;;;5052988;28;20029;-69
2024/03/02 00:50:56;;;;;;;1.60;0.93;;;;;;;;;;5052988;28;20048;-68
2024/03/02 00:53:24;;;;;;;0.93;0.60;;;;;;;;;;5035385;28;20041;-69
2024/03/02 00:55:50;;;;;;;1.77;0.82;;;;;;;;;;5053464;28;20603;-69
2024/03/02 00:58:15;;;;;;;1.58;0.77;;;;;;;;;;5052803;28;20108;-69
2024/03/02 01:00:40;;;;;;;1.02;0.60;;;;;;;;;;5052688;28;20072;-69
2024/03/02 01:03:07;;;;;;;1.83;0.88;;;;;;;;;;5052486;28;20037;-69
2024/03/02 01:05:33;;;;;;;3.17;0.90;;;;;;;;;;5050905;28;20040;-69
2024/03/02 01:07:58;;;;;;;1.95;0.80;;;;;;;;;;5034760;28;20040;-68
2024/03/02 01:10:25;;;;;;;1.77;0.52;;;;;;;;;;5052292;28;20035;-68
2024/03/02 01:12:51;;;;;;;1.30;0.75;;;;;;;;;;5052590;28;20515;-68
2024/03/02 01:15:16;;;;;;;2.10;1.25;;;;;;;;;;5049449;28;20041;-69
2024/03/02 01:17:41;;;;;;;1.70;0.90;;;;;;;;;;5052277;28;20880;-69
2024/03/02 01:20:09;;;;;;;4.95;0.88;;;;;;;;;;5052750;28;20033;-69
2024/03/02 01:22:35;;;;;;;2.30;0.90;;;;;;;;;;5034650;28;20048;-70
2024/03/02 01:25:01;;;;;;;1.85;0.75;;;;;;;;;;5052438;28;20117;-68
2024/03/02 01:27:26;;;;;;;2.58;1.00;;;;;;;;;;5052526;28;20120;-68
2024/03/02 01:29:52;;;;;;;4.47;1.33;;;;;;;;;;5051861;28;20123;-69
2024/03/02 01:32:17;;;;;;;2.78;1.20;;;;;;;;;;5034522;28;20029;-68
2024/03/02 01:34:43;;;;;;;1.27;0.70;;;;;;;;;;5052159;28;20053;-68
2024/03/02 01:37:09;;;;;;;2.63;0.80;;;;;;;;;;5051862;28;20428;-69
2024/03/02 01:39:35;;;;;;;5.22;0.82;;;;;;;;;;5048839;28;20037;-69
2024/03/02 01:42:00;;;;;;;2.20;1.05;;;;;;;;;;5052241;28;20049;-70
2024/03/02 01:44:26;;;;;;;2.17;1.20;;;;;;;;;;5051815;28;20036;-68
2024/03/02 01:46:51;;;;;;;3.28;1.00;;;;;;;;;;5033584;28;20395;-69
2024/03/02 01:49:16;;;;;;;3.28;1.30;;;;;;;;;;5034360;28;20631;-69
2024/03/02 01:51:42;;;;;;;4.68;1.08;;;;;;;;;;5050107;28;20044;-68
2024/03/02 01:54:07;;;;;;;2.58;1.40;;;;;;;;;;5051271;28;20028;-68
2024/03/02 01:56:33;;;;;;;1.70;0.80;;;;;;;;;;5051410;28;20123;-69
2024/03/02 01:58:58;;;;;;;1.13;0.73;;;;;;;;;;5051864;28;20437;-69
2024/03/02 02:01:23;;;;;;;4.32;0.90;;;;;;;;;;5050665;28;20025;-69
2024/03/02 02:03:49;;;;;;;0.47;0.35;;;;;;;;;;5051891;28;20487;-69
2024/03/02 02:06:14;;;;;;;1.30;0.77;;;;;;;;;;5051478;28;20491;-69
2024/03/02 02:08:39;;;;;;;2.20;0.85;;;;;;;;;;5051723;28;20037;-69
2024/03/02 02:11:05;;;;;;;1.27;0.80;;;;;;;;;;5033055;28;20132;-68
2024/03/02 02:13:30;;;;;;;2.25;0.90;;;;;;;;;;5051558;28;20464;-69
2024/03/02 02:16:04;;;;;;;7.10;0.93;;;;;;;;;;5051016;28;20029;-69
2024/03/02 02:18:29;;;;;;;0.88;0.60;;;;;;;;;;5051358;28;20152;-69
2024/03/02 02:20:55;;;;;;;3.67;0.85;;;;;;;;;;5050646;28;20532;-70
2024/03/02 02:23:20;;;;;;;2.58;0.73;;;;;;;;;;5041157;28;20041;-68
2024/03/02 02:25:45;;;;;;;1.00;0.60;;;;;;;;;;5050612;28;20520;-69
2024/03/02 02:28:11;;;;;;;1.65;0.80;;;;;;;;;;5051389;28;20044;-69
2024/03/02 02:30:36;;;;;;;3.95;1.10;;;;;;;;;;5050943;28;20036;-68
2024/03/02 02:33:01;;;;;;;9.25;0.82;;;;;;;;;;5050314;28;20037;-69
2024/03/02 02:35:27;;;;;;;2.65;1.15;;;;;;;;;;5051243;28;20056;-68
2024/03/02 02:37:54;;;;;;;1.10;0.70;;;;;;;;;;5050849;28;20454;-69
2024/03/02 02:40:19;;;;;;;1.33;0.80;;;;;;;;;;5032855;28;20031;-68
2024/03/02 02:42:45;;;;;;;1.17;0.70;;;;;;;;;;5050962;28;20511;-69
2024/03/02 02:45:12;;;;;;;1.35;0.70;;;;;;;;;;5050812;28;20061;-68
2024/03/02 02:47:38;;;;;;;1.42;0.70;;;;;;;;;;5050349;28;20033;-69
2024/03/02 02:50:04;;;;;;;1.73;0.90;;;;;;;;;;5049792;28;20036;-68
2024/03/02 02:52:36;;;;;;;2.25;0.95;;;;;;;;;;5050931;28;20087;-68
2024/03/02 02:55:06;;;;;;;3.75;1.00;;;;;;;;;;5029242;28;20546;-69
2024/03/02 02:57:35;;;;;;;1.60;0.98;;;;;;;;;;5050857;28;20040;-68
2024/03/02 03:00:14;;;;;;;2.13;1.05;;;;;;;;;;5033321;28;20028;-68
2024/03/02 03:02:41;;;;;;;3.45;1.50;;;;;;;;;;5043511;28;20075;-69
2024/03/02 03:05:07;;;;;;;2.55;1.40;;;;;;;;;;5050307;28;20044;-68
2024/03/02 03:07:34;;;;;;;1.65;1.00;;;;;;;;;;5050314;28;20029;-69
2024/03/02 03:10:00;;;;;;;1.77;1.20;;;;;;;;;;5050470;28;20091;-68
2024/03/02 03:12:25;;;;;;;6.72;1.15;;;;;;;;;;5049853;28;20072;-68
2024/03/02 03:14:51;;;;;;;2.17;1.00;;;;;;;;;;5032856;28;20033;-69
2024/03/02 03:17:17;;;;;;;2.00;1.05;;;;;;;;;;5049994;28;20033;-69
2024/03/02 03:19:42;;;;;;;1.92;1.02;;;;;;;;;;5032487;28;20423;-68
2024/03/02 03:22:08;;;;;;;2.92;1.40;;;;;;;;;;5050232;28;20029;-68
2024/03/02 03:24:33;;;;;;;4.25;1.30;;;;;;;;;;5050264;28;20036;-69
2024/03/02 03:26:58;;;;;;;2.00;1.02;;;;;;;;;;5049831;28;20032;-69
2024/03/02 03:29:24;;;;;;;2.38;1.10;;;;;;;;;;5049775;28;20098;-70
2024/03/02 03:31:49;;;;;;;3.13;1.10;;;;;;;;;;5050325;28;20032;-68
2024/03/02 03:34:15;;;;;;;4.13;1.48;;;;;;;;;;5049324;28;20044;-68
2024/03/02 03:36:41;;;;;;;3.30;1.45;;;;;;;;;;5050110;28;20029;-69
2024/03/02 03:39:06;;;;;;;7.93;1.40;;;;;;;;;;5050058;28;20044;-68
2024/03/02 03:41:32;;;;;;;3.28;1.38;;;;;;;;;;5031990;28;20045;-70
2024/03/02 03:43:57;;;;;;;3.90;1.25;;;;;;;;;;5049809;28;20076;-69
2024/03/02 03:46:22;;;;;;;2.55;1.50;;;;;;;;;;5049463;28;20040;-70
2024/03/02 03:48:48;;;;;;;2.13;1.10;;;;;;;;;;5050004;28;20045;-69
2024/03/02 03:51:13;;;;;;;6.50;1.58;;;;;;;;;;5049851;28;20035;-68
2024/03/02 03:53:39;;;;;;;1.98;1.08;;;;;;;;;;5050129;28;20033;-69
2024/03/02 03:56:05;;;;;;;2.60;1.17;;;;;;;;;;5032150;28;20041;-69
2024/03/02 03:58:30;;;;;;;6.35;1.25;;;;;;;;;;5049327;28;20029;-68
2024/03/02 04:00:55;;;;;;;2.33;1.02;;;;;;;;;;5049369;28;20511;-68
2024/03/02 04:03:21;;;;;;;2.83;1.20;;;;;;;;;;5049581;28;20442;-69
2024/03/02 04:05:46;;;;;;;1.60;0.95;;;;;;;;;;5049349;28;20419;-69
2024/03/02 04:08:11;;;;;;;1.88;1.10;;;;;;;;;;5049799;28;20043;-68
2024/03/02 04:10:37;;;;;;;1.98;1.08;;;;;;;;;;5049963;28;20310;-68
2024/03/02 04:13:02;;;;;;;1.50;0.90;;;;;;;;;;5049131;28;20075;-69
2024/03/02 04:15:27;;;;;;;1.23;0.70;;;;;;;;;;5049780;28;20086;-68
2024/03/02 04:17:53;;;;;;;2.35;1.08;;;;;;;;;;5031349;28;20112;-69
2024/03/02 04:20:18;;;;;;;1.77;0.90;;;;;;;;;;5049806;28;20029;-69
2024/03/02 04:22:43;;;;;;;3.78;1.05;;;;;;;;;;5049773;28;20116;-68
2024/03/02 04:25:09;;;;;;;1.67;0.85;;;;;;;;;;5049813;28;20132;-68
2024/03/02 04:27:35;;;;;;;3.45;1.00;;;;;;;;;;5049568;28;20104;-68
2024/03/02 04:30:00;;;;;;;1.45;0.82;;;;;;;;;;5049412;28;20073;-68
2024/03/02 04:32:28;;;;;;;3.47;1.40;;;;;;;;;;5049118;28;20041;-70
2024/03/02 04:34:54;;;;;;;1.85;1.10;;;;;;;;;;5049431;28;20412;-68
2024/03/02 04:37:19;;;;;;;2.25;1.20;;;;;;;;;;5031321;28;20037;-68
2024/03/02 04:39:45;;;;;;;5.13;1.60;;;;;;;;;;5049800;28;20075;-69
2024/03/02 04:42:10;;;;;;;6.60;1.25;;;;;;;;;;5049430;28;20100;-69
2024/03/02 04:44:36;;;;;;;1.90;1.00;;;;;;;;;;5049106;28;20098;-68
2024/03/02 04:47:02;;;;;;;1.88;0.85;;;;;;;;;;5053188;28;20041;-69
2024/03/02 04:49:27;;;;;;;5.25;1.50;;;;;;;;;;5052856;28;20040;-68
2024/03/02 04:51:53;;;;;;;3.05;1.77;;;;;;;;;;5052932;28;20112;-69
2024/03/02 04:54:18;;;;;;;7.38;1.40;;;;;;;;;;5053649;28;20048;-69
2024/03/02 04:56:44;;;;;;;2.22;1.25;;;;;;;;;;5053072;28;20021;-69
2024/03/02 04:59:10;;;;;;;2.00;1.00;;;;;;;;;;5052921;28;20040;-68
2024/03/02 05:01:35;;;;;;;6.03;1.38;;;;;;;;;;5035177;28;20037;-68
2024/03/02 05:04:01;;;;;;;1.17;0.70;;;;;;;;;;5053441;28;20033;-69
2024/03/02 05:06:26;;;;;;;2.13;0.80;;;;;;;;;;5053141;28;20455;-69
2024/03/02 05:08:51;;;;;;;2.00;1.10;;;;;;;;;;5052495;28;20040;-69
2024/03/02 05:11:39;;;;;;;1.42;0.63;;;;;;;;;;5052955;28;20043;-68
2024/03/02 05:14:05;;;;;;;4.30;0.90;;;;;;;;;;5051270;28;20376;-68
2024/03/02 05:16:38;;;;;;;1.40;0.70;;;;;;;;;;5029503;28;20040;-68
2024/03/02 05:19:05;;;;;;;9.50;1.65;;;;;;;;;;5037999;28;20040;-68
2024/03/02 05:21:31;;;;;;;1.88;0.75;;;;;;;;;;5052705;28;20071;-68
2024/03/02 05:24:02;;;;;;;2.10;0.98;;;;;;;;;;5052450;28;20041;-69
2024/03/02 05:26:27;;;;;;;3.00;0.75;;;;;;;;;;5051777;28;20392;-68
2024/03/02 05:28:53;;;;;;;1.45;0.60;;;;;;;;;;5052863;28;20021;-68
2024/03/02 05:31:18;;;;;;;5.47;0.70;;;;;;;;;;5052261;28;20040;-69
2024/03/02 05:33:43;;;;;;;2.08;1.10;;;;;;;;;;5052404;28;20041;-69
2024/03/02 05:36:09;;;;;;;1.38;0.90;;;;;;;;;;5052030;28;20029;-68
2024/03/02 05:38:35;;;;;;;2.97;1.05;;;;;;;;;;5034415;28;20052;-68
2024/03/02 05:41:00;;;;;;;1.48;0.80;;;;;;;;;;5052172;28;20040;-68
2024/03/02 05:43:25;;;;;;;3.65;1.17;;;;;;;;;;5052414;28;20033;-69
2024/03/02 05:45:51;;;;;;;1.35;0.77;;;;;;;;;;5051840;28;20032;-70
2024/03/02 05:48:16;;;;;;;3.00;0.70;;;;;;;;;;5051415;28;20037;-69
2024/03/02 05:50:41;;;;;;;1.95;0.75;;;;;;;;;;5049277;28;20059;-69
2024/03/02 05:53:07;;;;;;;2.33;0.57;;;;;;;;;;5052386;28;20079;-69
2024/03/02 05:55:32;;;;;;;0.80;0.60;;;;;;;;;;5051572;28;20048;-69
2024/03/02 06:00:23;;;;;;;0.68;0.43;;;;;;;;;;5034128;28;20047;-69
2024/03/02 06:02:48;;;;;;;1.10;0.68;;;;;;;;;;5051691;28;20045;-68
2024/03/02 06:05:15;;;;;;;1.02;0.52;;;;;;;;;;5051478;28;20578;-69
2024/03/02 06:07:40;;;;;;;1.13;0.68;;;;;;;;;;5051673;28;20112;-69
2024/03/02 06:10:07;;;;;;;0.75;0.47;;;;;;;;;;5051271;28;20116;-69
2024/03/02 06:12:32;;;;;;;1.23;0.75;;;;;;;;;;5051946;28;20083;-69
2024/03/02 06:14:58;;;;;;;1.40;0.57;;;;;;;;;;5031692;28;20049;-70
2024/03/02 06:17:23;;;;;;;1.50;0.77;;;;;;;;;;5051206;28;20037;-68
2024/03/02 06:19:48;;;;;;;0.65;0.47;;;;;;;;;;5051756;28;20040;-68
2024/03/02 06:22:14;;;;;;;8.38;0.60;;;;;;;;;;5051879;28;20039;-69
2024/03/02 06:24:39;;;;;;;1.58;0.47;;;;;;;;;;5051254;28;20047;-69
2024/03/02 06:27:05;;;;;;;1.20;0.70;;;;;;;;;;5051246;28;20071;-69
2024/03/02 06:29:33;;;;;;;0.50;0.50;;;;;;;;;;5051464;28;20072;-69
2024/03/02 06:31:58;;;;;;;0.50;0.38;;;;;;;;;;5051338;28;20044;-68
2024/03/02 06:34:23;;;;;;;0.73;0.50;;;;;;;;;;5051180;28;20049;-68
2024/03/02 06:36:49;;;;;;;0.55;0.40;;;;;;;;;;5051140;28;20033;-68
2024/03/02 06:39:14;;;;;;;0.43;0.40;;;;;;;;;;5042467;28;20040;-69
2024/03/02 06:41:40;;;;;;;0.25;0.22;;;;;;;;;;5049189;28;20031;-69
2024/03/02 06:44:06;;;;;;;0.60;0.30;;;;;;;;;;5050397;28;20037;-69
2024/03/02 06:46:31;;;;;;;0.10;0.10;;;;;;;;;;5050255;28;20560;-69
2024/03/02 06:48:57;;;;;;;0.77;0.40;;;;;;;;;;5049782;28;20029;-70
2024/03/02 06:51:22;;;;;;;0.25;0.25;;;;;;;;;;5050834;28;20083;-69
2024/03/02 06:53:48;;;;;;;0.40;0.40;;;;;;;;;;5051222;28;20091;-69
2024/03/02 06:56:13;;;;;;;3.30;0.35;;;;;;;;;;5049630;28;20431;-69
2024/03/02 06:58:39;;;;;;;0.52;0.40;;;;;;;;;;5051221;28;20436;-70
2024/03/02 07:01:04;;;;;;;0.50;0.32;;;;;;;;;;5050900;28;20040;-70
2024/03/02 07:03:30;;;;;;;0.32;0.30;;;;;;;;;;5050397;28;20025;-70
2024/03/02 07:05:55;;;;;;;0.30;0.20;;;;;;;;;;5050212;28;20109;-69
2024/03/02 07:08:20;;;;;;;1.08;0.28;;;;;;;;;;5050463;28;20041;-69
2024/03/02 07:10:46;;;;;;;0.30;0.28;;;;;;;;;;5050762;28;20068;-69
2024/03/02 07:13:12;;;;;;;1.33;0.60;;;;;;;;;;5050139;28;20043;-69
2024/03/02 07:16:12;;;;;;;20.02;1.42;;;;;;;;;;5050618;28;20044;-70
2024/03/02 07:18:40;;;;;;;5.95;0.50;;;;;;;;;;5046895;28;20044;-70
2024/03/02 07:21:06;;;;;;;0.35;0.30;;;;;;;;;;5033774;28;20484;-69
2024/03/02 07:23:32;;;;;;;0.40;0.30;;;;;;;;;;5032284;28;20078;-70
2024/03/02 07:25:59;;;;;;;1.00;0.45;;;;;;;;;;5050440;28;20467;-69
2024/03/02 07:28:25;;;;;;;4.35;0.45;;;;;;;;;;5050138;28;20140;-69
2024/03/02 07:31:00;;;;;;;0.47;0.38;;;;;;;;;;5050091;28;20043;-68
2024/03/02 07:33:26;;;;;;;0.35;0.20;;;;;;;;;;5050093;28;20059;-69
2024/03/02 07:35:52;;;;;;;0.10;0.10;;;;;;;;;;5031731;28;20053;-68
2024/03/02 07:38:17;;;;;;;0.20;0.20;;;;;;;;;;5050094;28;20472;-69
2024/03/02 07:40:42;;;;;;;0.17;0.17;;;;;;;;;;5050192;28;20037;-69
2024/03/02 07:43:08;;;;;;;0.10;0.10;;;;;;;;;;5049472;28;20480;-70
2024/03/02 07:45:35;;;;;;;0.38;0.20;;;;;;;;;;5032504;28;20094;-68
2024/03/02 07:48:01;;;;;;;0.20;0.20;;;;;;;;;;5050092;28;20032;-69
2024/03/02 07:50:27;;;;;;;0.10;0.10;;;;;;;;;;5030487;28;20029;-69
2024/03/02 07:52:52;;;;;;;0.25;0.22;;;;;;;;;;5048868;28;20094;-69
2024/03/02 07:55:18;;;;;;;0.32;0.25;;;;;;;;;;5049683;28;20499;-69
2024/03/02 07:57:43;;;;;;;0.32;0.30;;;;;;;;;;5049665;28;20419;-70
2024/03/02 08:00:09;;;;;;;0.30;0.30;;;;;;;;;;5049308;28;20041;-70
2024/03/02 08:02:35;;;;;;;0.25;0.25;;;;;;;;;;5049071;28;20045;-69
2024/03/02 08:05:01;;;;;;;0.20;0.20;;;;;;;;;;5049316;28;20036;-69
2024/03/02 08:07:26;;;;;;;0.68;0.40;;;;;;;;;;5049527;28;20393;-70
2024/03/02 08:09:51;;;;;;;0.38;0.30;;;;;;;;;;5049982;28;20045;-69
2024/03/02 08:12:18;;;;;;;0.20;0.20;;;;;;;;;;5056118;28;20028;-70
2024/03/02 08:14:43;;;;;;;0.50;0.40;;;;;;;;;;5049490;28;20116;-69
2024/03/02 08:17:09;;;;;;;0.20;0.20;;;;;;;;;;5047729;28;20188;-70
2024/03/02 08:19:36;;;;;;;0.90;0.47;;;;;;;;;;5050275;28;20029;-69
2024/03/02 08:22:01;;;;;;;0.60;0.40;;;;;;;;;;5051662;28;20040;-69
2024/03/02 08:24:27;;;;;;;0.28;0.28;;;;;;;;;;5052469;28;20469;-70
2024/03/02 08:26:52;;;;;;;0.30;0.30;;;;;;;;;;5034788;28;20064;-69
2024/03/02 08:29:18;;;;;;;0.52;0.35;;;;;;;;;;5053126;28;20040;-69
2024/03/02 08:31:43;;;;;;;0.90;0.60;;;;;;;;;;5053439;28;20048;-69
2024/03/02 08:34:09;;;;;;;0.47;0.40;;;;;;;;;;5053055;28;20052;-69
2024/03/02 08:36:34;;;;;;;1.13;0.70;;;;;;;;;;5052053;28;20048;-69
2024/03/02 08:38:59;;;;;;;0.95;0.63;;;;;;;;;;5052942;28;20110;-69
2024/03/02 08:41:25;;;;;;;5.82;0.88;;;;;;;;;;5053524;28;20037;-69
2024/03/02 08:43:50;;;;;;;1.58;0.80;;;;;;;;;;5036353;28;20037;-70
2024/03/02 08:46:16;;;;;;;0.57;0.45;;;;;;;;;;5043078;28;20071;-69
2024/03/02 08:48:41;;;;;;;1.10;0.50;;;;;;;;;;5053323;28;20025;-69
2024/03/02 08:51:07;;;;;;;0.80;0.50;;;;;;;;;;5035666;28;20091;-69
2024/03/02 08:53:33;;;;;;;1.20;0.75;;;;;;;;;;5057320;28;20044;-69
2024/03/02 08:55:58;;;;;;;1.08;0.60;;;;;;;;;;5054014;28;20396;-68
2024/03/02 08:58:24;;;;;;;0.63;0.50;;;;;;;;;;5053159;28;20060;-70
2024/03/02 09:00:49;;;;;;;0.85;0.55;;;;;;;;;;5032028;28;20036;-69
2024/03/02 09:03:16;;;;;;;1.38;0.80;;;;;;;;;;5052834;28;20033;-68
2024/03/02 09:05:42;;;;;;;1.23;0.70;;;;;;;;;;5052745;28;20072;-68
2024/03/02 09:08:08;;;;;;;0.75;0.55;;;;;;;;;;5032201;28;20108;-69
2024/03/02 09:10:33;;;;;;;1.30;0.80;;;;;;;;;;5052898;28;20426;-68
2024/03/02 09:12:59;;;;;;;0.65;0.50;;;;;;;;;;5034164;28;20052;-69
2024/03/02 09:15:24;;;;;;;1.20;0.70;;;;;;;;;;5051520;28;20068;-68
2024/03/02 09:17:50;;;;;;;1.02;0.52;;;;;;;;;;5052774;28;20029;-68
2024/03/02 09:20:16;;;;;;;1.55;1.00;;;;;;;;;;5052871;28;20634;-68
2024/03/02 09:22:41;;;;;;;1.13;0.70;;;;;;;;;;5052713;28;20041;-69
2024/03/02 09:25:08;;;;;;;1.05;0.68;;;;;;;;;;5052284;28;20036;-68
2024/03/02 09:27:36;;;;;;;1.83;0.82;;;;;;;;;;5052563;28;20481;-68
2024/03/02 09:30:02;;;;;;;2.15;1.00;;;;;;;;;;5052282;28;20113;-68
2024/03/02 09:32:27;;;;;;;1.70;0.75;;;;;;;;;;5051701;28;20061;-69
2024/03/02 09:34:53;;;;;;;1.25;0.75;;;;;;;;;;5050756;28;20107;-70
2024/03/02 09:37:18;;;;;;;1.23;0.70;;;;;;;;;;5050802;28;20041;-68
2024/03/02 09:39:45;;;;;;;2.30;1.30;;;;;;;;;;5016991;28;20040;-69
2024/03/02 09:42:10;;;;;;;2.20;0.98;;;;;;;;;;5050713;28;20041;-69
2024/03/02 09:44:35;;;;;;;2.58;1.50;;;;;;;;;;5033941;28;20441;-68
2024/03/02 09:47:01;;;;;;;2.50;1.02;;;;;;;;;;5051197;28;21339;-70
2024/03/02 09:49:26;;;;;;;2.63;1.23;;;;;;;;;;5051235;28;20033;-70
2024/03/02 09:51:52;;;;;;;2.45;1.40;;;;;;;;;;5033444;28;20064;-69
2024/03/02 09:54:17;;;;;;;1.88;1.00;;;;;;;;;;5046131;28;20033;-71
2024/03/02 09:56:44;;;;;;;2.75;1.20;;;;;;;;;;5051620;28;20124;-69
2024/03/02 09:59:09;;;;;;;3.17;1.42;;;;;;;;;;5051977;28;20033;-69
2024/03/02 10:01:34;;;;;;;2.92;1.40;;;;;;;;;;5051551;28;20148;-70
2024/03/02 10:04:00;;;;;;;2.63;1.30;;;;;;;;;;5051774;28;20044;-69
2024/03/02 10:06:26;;;;;;;2.47;1.30;;;;;;;;;;5033795;28;20037;-70
2024/03/02 10:08:53;;;;;;;2.00;1.23;;;;;;;;;;5033961;28;20112;-71
2024/03/02 10:11:29;;;;;;;2.80;1.75;;;;;;;;;;5051195;28;20484;-69
2024/03/02 10:14:13;;;;;;;2.25;1.38;;;;;;;;;;5051640;28;20041;-70
2024/03/02 10:16:41;;;;;;;3.10;1.40;;;;;;;;;;5051615;28;20563;-70
2024/03/02 10:19:23;;;;;;;3.22;1.20;;;;;;;;;;5033506;28;20040;-70
2024/03/02 10:21:51;;;;;;;4.97;1.35;;;;;;;;;;5051625;28;20037;-70
2024/03/02 10:24:17;;;;;;;2.08;1.27;;;;;;;;;;5051584;28;20043;-69
2024/03/02 10:26:42;;;;;;;1.98;1.20;;;;;;;;;;5051170;28;20052;-69
2024/03/02 10:29:11;;;;;;;2.75;1.60;;;;;;;;;;5051560;28;20028;-69
2024/03/02 10:31:37;;;;;;;2.15;1.13;;;;;;;;;;5042958;28;21245;-70
2024/03/02 10:34:03;;;;;;;1.95;1.13;;;;;;;;;;5051043;28;20053;-69
2024/03/02 10:36:29;;;;;;;2.70;1.30;;;;;;;;;;5051367;28;20035;-69
2024/03/02 10:38:56;;;;;;;3.00;1.70;;;;;;;;;;5051321;28;20037;-69
2024/03/02 10:41:26;;;;;;;2.60;1.45;;;;;;;;;;5032811;28;20033;-69
2024/03/02 10:43:58;;;;;;;2.40;1.50;;;;;;;;;;5049652;28;20096;-69
2024/03/02 10:46:28;;;;;;;3.40;1.50;;;;;;;;;;5051307;28;20033;-69
2024/03/02 10:48:53;;;;;;;3.28;1.67;;;;;;;;;;5033144;28;20048;-69
2024/03/02 10:51:18;;;;;;;2.75;1.42;;;;;;;;;;5050925;28;20068;-69
2024/03/02 10:53:44;;;;;;;2.60;1.52;;;;;;;;;;5051204;28;20086;-68
2024/03/02 10:56:09;;;;;;;3.13;1.60;;;;;;;;;;5033113;28;20041;-69
2024/03/02 10:58:35;;;;;;;2.13;1.13;;;;;;;;;;5016285;28;20064;-69
2024/03/02 11:01:03;;;;;;;2.83;1.33;;;;;;;;;;5033158;28;20087;-69
2024/03/02 11:03:32;;;;;;;3.72;1.60;;;;;;;;;;5032765;28;20045;-69
2024/03/02 11:05:59;;;;;;;11.38;2.22;;;;;;;;;;5032830;28;20045;-69
2024/03/02 11:08:26;;;;;;;5.20;2.15;;;;;;;;;;5030543;28;20086;-69
2024/03/02 11:10:57;;;;;;;5.15;2.85;;;;;;;;;;5030660;28;20033;-69
2024/03/02 11:13:29;;;;;;;5.35;3.03;;;;;;;;;;5032574;28;20041;-68
2024/03/02 11:16:01;;;;;;;6.18;2.15;;;;;;;;;;5033056;28;20056;-69
2024/03/02 11:18:26;;;;;;;4.88;2.05;;;;;;;;;;5033020;28;20048;-68
2024/03/02 11:20:52;;;;;;;6.50;2.97;;;;;;;;;;5031254;28;20037;-68
2024/03/02 11:23:17;;;;;;;4.88;2.50;;;;;;;;;;5050656;28;20035;-69
2024/03/02 11:25:43;;;;;;;5.28;2.30;;;;;;;;;;5050445;28;20476;-69
2024/03/02 11:28:09;;;;;;;5.25;2.65;;;;;;;;;;5049971;28;20074;-69
2024/03/02 11:30:34;;;;;;;5.25;2.15;;;;;;;;;;5050500;28;20044;-69
2024/03/02 11:33:07;;;;;;;5.43;2.28;;;;;;;;;;5050537;28;20090;-69
2024/03/02 11:35:33;;;;;;;3.35;2.08;;;;;;;;;;5032660;28;20056;-70
2024/03/02 11:37:58;;;;;;;6.43;1.23;;;;;;;;;;5050536;28;20049;-70
2024/03/02 11:40:27;;;;;;;3.65;1.63;;;;;;;;;;5032364;28;20043;-69
2024/03/02 11:42:53;;;;;;;3.67;1.75;;;;;;;;;;5032174;28;20112;-69
2024/03/02 11:45:25;;;;;;;2.65;1.55;;;;;;;;;;5047411;28;20166;-69
2024/03/02 11:47:53;;;;;;;2.63;1.50;;;;;;;;;;5050108;28;20496;-69
2024/03/02 11:50:47;;;;;;;6.47;1.90;;;;;;;;;;5032285;28;20032;-69
2024/03/02 11:53:13;;;;;;;3.28;2.10;;;;;;;;;;5048994;28;20392;-68
2024/03/02 11:55:40;;;;;;;3.53;2.15;;;;;;;;;;5050150;28;20053;-68
2024/03/02 11:58:09;;;;;;;2.92;1.60;;;;;;;;;;5050521;28;20036;-69
2024/03/02 12:00:35;;;;;;;4.15;1.50;;;;;;;;;;5031729;28;20392;-69
2024/03/02 12:03:01;;;;;;;2.95;1.40;;;;;;;;;;5048152;28;20033;-70
2024/03/02 12:05:27;;;;;;;2.33;1.17;;;;;;;;;;5031979;28;20025;-68
2024/03/02 12:07:59;;;;;;;3.47;1.58;;;;;;;;;;5031944;28;20048;-68
2024/03/02 12:10:25;;;;;;;2.33;1.27;;;;;;;;;;5050251;28;20041;-68
2024/03/02 12:12:57;;;;;;;3.00;1.60;;;;;;;;;;5032400;28;20086;-69
2024/03/02 12:15:25;;;;;;;2.33;1.10;;;;;;;;;;5030925;28;20477;-69
2024/03/02 12:17:56;;;;;;;2.30;1.10;;;;;;;;;;5048011;28;20041;-68
2024/03/02 12:20:23;;;;;;;2.13;1.08;;;;;;;;;;5049828;28;20196;-68
2024/03/02 12:22:52;;;;;;;3.20;1.70;;;;;;;;;;5040265;28;20041;-70
2024/03/02 12:25:17;;;;;;;4.07;1.60;;;;;;;;;;5047627;28;20036;-68
2024/03/02 12:27:43;;;;;;;3.38;1.67;;;;;;;;;;5032090;28;20033;-69
2024/03/02 12:30:10;;;;;;;3.47;1.50;;;;;;;;;;5048981;28;20091;-69
2024/03/02 12:32:37;;;;;;;5.63;1.90;;;;;;;;;;5049656;28;20048;-68
2024/03/02 12:35:04;;;;;;;3.80;1.63;;;;;;;;;;5049640;28;20124;-69
2024/03/02 12:37:30;;;;;;;3.10;1.52;;;;;;;;;;5049199;28;20120;-69
2024/03/02 12:39:56;;;;;;;2.92;1.45;;;;;;;;;;5031491;28;20567;-68
2024/03/02 12:42:21;;;;;;;3.75;1.75;;;;;;;;;;5049852;28;20107;-68
2024/03/02 12:44:47;;;;;;;3.78;1.50;;;;;;;;;;5048627;28;20083;-69
2024/03/02 12:47:13;;;;;;;3.10;1.40;;;;;;;;;;5049546;28;20037;-69
2024/03/02 12:49:40;;;;;;;3.75;2.13;;;;;;;;;;5049014;28;20141;-69
2024/03/02 12:52:05;;;;;;;3.42;2.05;;;;;;;;;;5048431;28;20079;-68
2024/03/02 12:54:31;;;;;;;3.20;1.75;;;;;;;;;;5049344;28;20024;-69
2024/03/02 12:56:57;;;;;;;3.17;1.60;;;;;;;;;;5049679;28;20029;-68
2024/03/02 12:59:26;;;;;;;2.70;1.38;;;;;;;;;;5049199;28;20037;-68
2024/03/02 13:01:52;;;;;;;3.60;1.88;;;;;;;;;;5049260;28;20029;-69
2024/03/02 13:04:22;;;;;;;3.58;1.75;;;;;;;;;;5049179;28;20159;-68
2024/03/02 13:06:47;;;;;;;2.67;1.67;;;;;;;;;;5050956;28;20098;-69
2024/03/02 13:09:14;;;;;;;2.75;1.58;;;;;;;;;;5052576;28;20029;-69
2024/03/02 13:11:40;;;;;;;5.45;1.88;;;;;;;;;;5045141;28;20488;-69
2024/03/02 13:14:05;;;;;;;3.83;1.73;;;;;;;;;;5033836;28;20129;-69
2024/03/02 13:16:31;;;;;;;4.60;2.17;;;;;;;;;;5050974;28;20037;-68
2024/03/02 13:18:56;;;;;;;3.05;1.60;;;;;;;;;;5051211;28;20036;-68
2024/03/02 13:21:21;;;;;;;2.90;1.58;;;;;;;;;;5050463;28;20041;-69
2024/03/02 13:23:47;;;;;;;2.03;1.15;;;;;;;;;;5051138;28;20028;-68
2024/03/02 13:26:13;;;;;;;2.90;1.58;;;;;;;;;;5051422;28;20025;-69
2024/03/02 13:28:39;;;;;;;2.97;1.50;;;;;;;;;;5033612;28;20491;-68
2024/03/02 13:31:04;;;;;;;3.65;1.60;;;;;;;;;;5050074;28;20048;-69
2024/03/02 13:33:30;;;;;;;2.45;1.45;;;;;;;;;;5051175;28;20025;-68
2024/03/02 13:35:56;;;;;;;2.90;1.77;;;;;;;;;;5033247;28;20447;-69
2024/03/02 13:38:21;;;;;;;3.40;1.98;;;;;;;;;;5042050;28;20083;-68
2024/03/02 13:40:50;;;;;;;4.22;1.80;;;;;;;;;;5051519;28;20033;-68
2024/03/02 13:43:16;;;;;;;2.80;1.55;;;;;;;;;;5051570;28;20045;-69
2024/03/02 13:45:42;;;;;;;1.88;0.98;;;;;;;;;;5050902;28;20039;-68
2024/03/02 13:48:07;;;;;;;3.03;1.50;;;;;;;;;;5033203;28;20480;-69
2024/03/02 13:50:32;;;;;;;4.18;1.25;;;;;;;;;;5051017;28;20120;-69
2024/03/02 13:52:58;;;;;;;4.90;1.60;;;;;;;;;;5016830;28;20476;-68
2024/03/02 13:55:23;;;;;;;2.70;1.55;;;;;;;;;;5051737;28;20028;-68
2024/03/02 13:57:49;;;;;;;2.20;1.33;;;;;;;;;;5051111;28;20079;-68
2024/03/02 14:00:17;;;;;;;7.60;2.92;;;;;;;;;;5031945;28;20419;-69
2024/03/02 14:02:42;;;;;;;4.05;2.28;;;;;;;;;;5049219;28;20086;-70
2024/03/02 14:05:11;;;;;;;3.55;2.00;;;;;;;;;;5033998;28;20120;-69
2024/03/02 14:07:38;;;;;;;5.38;2.50;;;;;;;;;;5051487;28;20472;-69
2024/03/02 14:10:03;;;;;;;5.95;3.08;;;;;;;;;;5051890;28;20112;-69
2024/03/02 14:12:29;;;;;;;5.47;3.20;;;;;;;;;;5051630;28;20136;-69
2024/03/02 14:14:57;;;;;;;5.47;2.88;;;;;;;;;;5051884;28;20037;-66
2024/03/02 14:17:24;;;;;;;4.85;2.28;;;;;;;;;;5050588;28;20040;-67
2024/03/02 14:19:49;;;;;;;6.55;2.42;;;;;;;;;;5051498;28;20451;-69
2024/03/02 14:22:17;;;;;;;4.95;2.97;;;;;;;;;;5033663;28;20060;-69
2024/03/02 14:24:43;;;;;;;5.95;2.88;;;;;;;;;;5051602;28;20165;-68
2024/03/02 14:27:08;;;;;;;6.63;2.72;;;;;;;;;;5033477;28;20124;-69
2024/03/02 14:29:36;;;;;;;4.78;2.85;;;;;;;;;;5033151;28;20033;-70
2024/03/02 14:32:03;;;;;;;5.55;2.88;;;;;;;;;;5050871;28;20036;-69
2024/03/02 14:34:28;;;;;;;4.10;2.50;;;;;;;;;;5032584;28;20613;-69
2024/03/02 14:36:53;;;;;;;4.80;2.75;;;;;;;;;;5050935;28;20037;-68
2024/03/02 14:39:19;;;;;;;5.00;2.55;;;;;;;;;;5051560;28;20040;-69
2024/03/02 14:41:45;;;;;;;3.88;2.08;;;;;;;;;;5032791;28;20116;-69